sensor_id;sensor_type;location;lat;lon;timestamp;P1;durP1;ratioP1;P2;durP2;ratioP2
17052;SDS011;8643;48.824;11.422;2022-09-02T00:00:04;3.38;;;2.97;;
17052;SDS011;8643;48.824;11.422;2022-09-02T00:02:35;6.70;;;3.50;;
17052;SDS011;8643;48.824;11.422;2022-09-02T00:05:04;4.03;;;3.35;;
17052;SDS011;8643;48.824;11.422;2022-09-02T00:07:33;4.82;;;3.50;;
17052;SDS011;8643;48.824;11.422;2022-09-02T00:10:04;5.22;;;3.53;;
17052;SDS011;8643;48.824;11.422;2022-09-02T00:12:33;5.60;;;3.70;;
17052;SDS011;8643;48.824;11.422;2022-09-02T00:15:02;4.60;;;3.22;;
17052;SDS011;8643;48.824;11.422;2022-09-02T00:17:32;4.60;;;3.28;;
17052;SDS011;8643;48.824;11.422;2022-09-02T00:20:00;4.70;;;3.22;;
17052;SDS011;8643;48.824;11.422;2022-09-02T00:22:30;4.53;;;3.20;;
17052;SDS011;8643;48.824;11.422;2022-09-02T00:24:59;3.55;;;3.25;;
17052;SDS011;8643;48.824;11.422;2022-09-02T00:27:28;5.22;;;3.17;;
17052;SDS011;8643;48.824;11.422;2022-09-02T00:29:57;5.65;;;3.28;;
17052;SDS011;8643;48.824;11.422;2022-09-02T00:32:25;3.65;;;3.20;;
17052;SDS011;8643;48.824;11.422;2022-09-02T00:34:53;4.43;;;3.15;;
17052;SDS011;8643;48.824;11.422;2022-09-02T00:37:23;3.42;;;2.95;;
17052;SDS011;8643;48.824;11.422;2022-09-02T00:39:53;3.50;;;3.10;;
17052;SDS011;8643;48.824;11.422;2022-09-02T00:42:24;6.18;;;3.47;;
17052;SDS011;8643;48.824;11.422;2022-09-02T00:44:54;3.88;;;3.00;;
17052;SDS011;8643;48.824;11.422;2022-09-02T00:47:22;4.40;;;2.92;;
17052;SDS011;8643;48.824;11.422;2022-09-02T00:49:51;3.42;;;3.00;;
17052;SDS011;8643;48.824;11.422;2022-09-02T00:52:21;3.28;;;2.90;;
17052;SDS011;8643;48.824;11.422;2022-09-02T00:54:55;4.70;;;3.20;;
17052;SDS011;8643;48.824;11.422;2022-09-02T00:57:28;3.42;;;2.88;;
17052;SDS011;8643;48.824;11.422;2022-09-02T01:00:08;3.88;;;2.95;;
17052;SDS011;8643;48.824;11.422;2022-09-02T01:02:43;3.75;;;3.03;;
17052;SDS011;8643;48.824;11.422;2022-09-02T01:05:18;3.20;;;2.80;;
17052;SDS011;8643;48.824;11.422;2022-09-02T01:07:50;4.35;;;3.22;;
17052;SDS011;8643;48.824;11.422;2022-09-02T01:10:22;6.25;;;3.50;;
17052;SDS011;8643;48.824;11.422;2022-09-02T01:12:53;4.03;;;3.35;;
17052;SDS011;8643;48.824;11.422;2022-09-02T01:15:25;4.80;;;3.20;;
17052;SDS011;8643;48.824;11.422;2022-09-02T01:17:55;3.90;;;3.10;;
17052;SDS011;8643;48.824;11.422;2022-09-02T01:20:25;3.92;;;3.30;;
17052;SDS011;8643;48.824;11.422;2022-09-02T01:22:54;5.60;;;3.30;;
17052;SDS011;8643;48.824;11.422;2022-09-02T01:25:25;6.18;;;3.35;;
17052;SDS011;8643;48.824;11.422;2022-09-02T01:27:57;5.65;;;3.10;;
17052;SDS011;8643;48.824;11.422;2022-09-02T01:30:28;6.05;;;3.30;;
17052;SDS011;8643;48.824;11.422;2022-09-02T01:32:58;4.22;;;3.65;;
17052;SDS011;8643;48.824;11.422;2022-09-02T01:35:26;4.55;;;3.10;;
17052;SDS011;8643;48.824;11.422;2022-09-02T01:37:56;4.28;;;3.10;;
17052;SDS011;8643;48.824;11.422;2022-09-02T01:40:27;3.70;;;3.30;;
17052;SDS011;8643;48.824;11.422;2022-09-02T01:42:58;4.20;;;2.92;;
17052;SDS011;8643;48.824;11.422;2022-09-02T01:45:31;3.95;;;3.00;;
17052;SDS011;8643;48.824;11.422;2022-09-02T01:48:01;3.25;;;2.95;;
17052;SDS011;8643;48.824;11.422;2022-09-02T01:50:30;3.25;;;2.90;;
17052;SDS011;8643;48.824;11.422;2022-09-02T01:53:00;4.53;;;3.13;;
17052;SDS011;8643;48.824;11.422;2022-09-02T01:55:31;4.35;;;3.10;;
17052;SDS011;8643;48.824;11.422;2022-09-02T01:58:01;4.28;;;3.10;;
17052;SDS011;8643;48.824;11.422;2022-09-02T02:00:30;3.65;;;3.22;;
17052;SDS011;8643;48.824;11.422;2022-09-02T02:03:00;4.10;;;2.90;;
17052;SDS011;8643;48.824;11.422;2022-09-02T02:05:29;4.82;;;3.03;;
17052;SDS011;8643;48.824;11.422;2022-09-02T02:08:01;4.50;;;2.90;;
17052;SDS011;8643;48.824;11.422;2022-09-02T02:10:29;2.95;;;2.70;;
17052;SDS011;8643;48.824;11.422;2022-09-02T02:12:58;3.55;;;2.90;;
17052;SDS011;8643;48.824;11.422;2022-09-02T02:15:30;3.93;;;2.97;;
17052;SDS011;8643;48.824;11.422;2022-09-02T02:17:57;4.93;;;3.20;;
17052;SDS011;8643;48.824;11.422;2022-09-02T02:20:26;4.80;;;2.85;;
17052;SDS011;8643;48.824;11.422;2022-09-02T02:22:55;3.88;;;2.80;;
17052;SDS011;8643;48.824;11.422;2022-09-02T02:25:24;3.38;;;2.47;;
17052;SDS011;8643;48.824;11.422;2022-09-02T02:27:54;6.93;;;2.72;;
17052;SDS011;8643;48.824;11.422;2022-09-02T02:30:23;2.57;;;2.37;;
17052;SDS011;8643;48.824;11.422;2022-09-02T02:32:51;3.85;;;2.50;;
17052;SDS011;8643;48.824;11.422;2022-09-02T02:35:20;4.43;;;2.55;;
17052;SDS011;8643;48.824;11.422;2022-09-02T02:37:50;3.83;;;2.25;;
17052;SDS011;8643;48.824;11.422;2022-09-02T02:40:20;3.28;;;2.63;;
17052;SDS011;8643;48.824;11.422;2022-09-02T02:42:52;5.65;;;2.42;;
17052;SDS011;8643;48.824;11.422;2022-09-02T02:45:23;3.22;;;2.40;;
17052;SDS011;8643;48.824;11.422;2022-09-02T02:47:52;5.88;;;2.53;;
17052;SDS011;8643;48.824;11.422;2022-09-02T02:50:23;3.43;;;2.60;;
17052;SDS011;8643;48.824;11.422;2022-09-02T02:52:53;3.37;;;2.30;;
17052;SDS011;8643;48.824;11.422;2022-09-02T02:55:24;3.87;;;2.47;;
17052;SDS011;8643;48.824;11.422;2022-09-02T02:57:56;3.53;;;2.40;;
17052;SDS011;8643;48.824;11.422;2022-09-02T03:00:25;3.20;;;2.50;;
17052;SDS011;8643;48.824;11.422;2022-09-02T03:02:58;3.42;;;2.42;;
17052;SDS011;8643;48.824;11.422;2022-09-02T03:05:29;2.93;;;2.20;;
17052;SDS011;8643;48.824;11.422;2022-09-02T03:08:02;3.63;;;2.17;;
17052;SDS011;8643;48.824;11.422;2022-09-02T03:10:32;2.50;;;2.05;;
17052;SDS011;8643;48.824;11.422;2022-09-02T03:13:04;3.42;;;2.30;;
17052;SDS011;8643;48.824;11.422;2022-09-02T03:15:35;3.22;;;2.20;;
17052;SDS011;8643;48.824;11.422;2022-09-02T03:18:05;2.17;;;1.98;;
17052;SDS011;8643;48.824;11.422;2022-09-02T03:20:35;2.47;;;2.10;;
17052;SDS011;8643;48.824;11.422;2022-09-02T03:23:05;4.07;;;2.20;;
17052;SDS011;8643;48.824;11.422;2022-09-02T03:25:34;4.47;;;2.28;;
17052;SDS011;8643;48.824;11.422;2022-09-02T03:28:14;3.15;;;2.17;;
17052;SDS011;8643;48.824;11.422;2022-09-02T03:30:45;4.13;;;2.38;;
17052;SDS011;8643;48.824;11.422;2022-09-02T03:33:16;2.95;;;2.20;;
17052;SDS011;8643;48.824;11.422;2022-09-02T03:35:45;3.28;;;2.10;;
17052;SDS011;8643;48.824;11.422;2022-09-02T03:38:14;5.60;;;2.10;;
17052;SDS011;8643;48.824;11.422;2022-09-02T03:40:43;3.65;;;2.00;;
17052;SDS011;8643;48.824;11.422;2022-09-02T03:43:12;2.33;;;2.10;;
17052;SDS011;8643;48.824;11.422;2022-09-02T03:45:43;2.20;;;2.00;;
17052;SDS011;8643;48.824;11.422;2022-09-02T03:48:13;3.97;;;2.22;;
17052;SDS011;8643;48.824;11.422;2022-09-02T03:50:43;2.47;;;2.15;;
17052;SDS011;8643;48.824;11.422;2022-09-02T03:53:16;2.70;;;2.03;;
17052;SDS011;8643;48.824;11.422;2022-09-02T03:55:50;3.37;;;2.10;;
17052;SDS011;8643;48.824;11.422;2022-09-02T03:58:24;2.78;;;2.25;;
17052;SDS011;8643;48.824;11.422;2022-09-02T04:00:54;2.60;;;2.03;;
17052;SDS011;8643;48.824;11.422;2022-09-02T04:03:24;4.63;;;2.33;;
17052;SDS011;8643;48.824;11.422;2022-09-02T04:05:53;2.47;;;1.90;;
17052;SDS011;8643;48.824;11.422;2022-09-02T04:08:24;4.13;;;2.30;;
17052;SDS011;8643;48.824;11.422;2022-09-02T04:10:56;4.90;;;2.30;;
17052;SDS011;8643;48.824;11.422;2022-09-02T04:13:26;2.13;;;1.93;;
17052;SDS011;8643;48.824;11.422;2022-09-02T04:15:55;2.63;;;2.00;;
17052;SDS011;8643;48.824;11.422;2022-09-02T04:18:28;3.13;;;2.03;;
17052;SDS011;8643;48.824;11.422;2022-09-02T04:20:58;3.53;;;2.20;;
17052;SDS011;8643;48.824;11.422;2022-09-02T04:23:27;3.35;;;2.03;;
17052;SDS011;8643;48.824;11.422;2022-09-02T04:25:55;2.63;;;2.10;;
17052;SDS011;8643;48.824;11.422;2022-09-02T04:28:24;3.83;;;2.00;;
17052;SDS011;8643;48.824;11.422;2022-09-02T04:30:55;2.77;;;2.30;;
17052;SDS011;8643;48.824;11.422;2022-09-02T04:33:23;4.13;;;2.47;;
17052;SDS011;8643;48.824;11.422;2022-09-02T04:35:52;2.70;;;2.13;;
17052;SDS011;8643;48.824;11.422;2022-09-02T04:38:21;3.20;;;2.03;;
17052;SDS011;8643;48.824;11.422;2022-09-02T04:40:50;3.28;;;2.10;;
17052;SDS011;8643;48.824;11.422;2022-09-02T04:43:18;4.67;;;2.03;;
17052;SDS011;8643;48.824;11.422;2022-09-02T04:45:48;3.22;;;2.42;;
17052;SDS011;8643;48.824;11.422;2022-09-02T04:48:18;2.43;;;2.10;;
17052;SDS011;8643;48.824;11.422;2022-09-02T04:50:47;6.90;;;2.10;;
17052;SDS011;8643;48.824;11.422;2022-09-02T04:53:16;3.22;;;2.40;;
17052;SDS011;8643;48.824;11.422;2022-09-02T04:55:45;6.10;;;2.33;;
17052;SDS011;8643;48.824;11.422;2022-09-02T04:58:14;2.80;;;2.20;;
17052;SDS011;8643;48.824;11.422;2022-09-02T05:00:46;3.58;;;2.17;;
17052;SDS011;8643;48.824;11.422;2022-09-02T05:03:17;2.72;;;2.10;;
17052;SDS011;8643;48.824;11.422;2022-09-02T05:05:46;3.03;;;2.20;;
17052;SDS011;8643;48.824;11.422;2022-09-02T05:08:24;5.17;;;2.00;;
17052;SDS011;8643;48.824;11.422;2022-09-02T05:10:54;3.70;;;1.93;;
17052;SDS011;8643;48.824;11.422;2022-09-02T05:13:23;3.33;;;1.92;;
17052;SDS011;8643;48.824;11.422;2022-09-02T05:15:52;6.00;;;1.80;;
17052;SDS011;8643;48.824;11.422;2022-09-02T05:18:22;1.70;;;1.60;;
17052;SDS011;8643;48.824;11.422;2022-09-02T05:20:51;3.70;;;1.80;;
17052;SDS011;8643;48.824;11.422;2022-09-02T05:23:19;3.92;;;1.90;;
17052;SDS011;8643;48.824;11.422;2022-09-02T05:25:48;3.17;;;1.75;;
17052;SDS011;8643;48.824;11.422;2022-09-02T05:28:16;4.30;;;1.98;;
17052;SDS011;8643;48.824;11.422;2022-09-02T05:30:45;3.50;;;1.95;;
17052;SDS011;8643;48.824;11.422;2022-09-02T05:33:15;4.70;;;1.80;;
17052;SDS011;8643;48.824;11.422;2022-09-02T05:35:48;5.45;;;1.90;;
17052;SDS011;8643;48.824;11.422;2022-09-02T05:38:19;3.83;;;1.85;;
17052;SDS011;8643;48.824;11.422;2022-09-02T05:40:48;5.93;;;1.88;;
17052;SDS011;8643;48.824;11.422;2022-09-02T05:43:17;2.88;;;1.95;;
17052;SDS011;8643;48.824;11.422;2022-09-02T05:45:46;3.03;;;2.00;;
17052;SDS011;8643;48.824;11.422;2022-09-02T05:48:16;2.05;;;1.75;;
17052;SDS011;8643;48.824;11.422;2022-09-02T05:51:04;2.67;;;1.80;;
17052;SDS011;8643;48.824;11.422;2022-09-02T05:53:33;5.38;;;1.73;;
17052;SDS011;8643;48.824;11.422;2022-09-02T05:56:02;2.83;;;1.90;;
17052;SDS011;8643;48.824;11.422;2022-09-02T05:58:33;2.88;;;1.70;;
17052;SDS011;8643;48.824;11.422;2022-09-02T06:01:05;6.18;;;1.63;;
17052;SDS011;8643;48.824;11.422;2022-09-02T06:03:36;2.97;;;1.70;;
17052;SDS011;8643;48.824;11.422;2022-09-02T06:06:07;4.25;;;1.70;;
17052;SDS011;8643;48.824;11.422;2022-09-02T06:08:39;2.50;;;1.77;;
17052;SDS011;8643;48.824;11.422;2022-09-02T06:11:09;1.77;;;1.50;;
17052;SDS011;8643;48.824;11.422;2022-09-02T06:13:40;3.08;;;1.60;;
17052;SDS011;8643;48.824;11.422;2022-09-02T06:16:11;2.65;;;1.45;;
17052;SDS011;8643;48.824;11.422;2022-09-02T06:18:46;1.75;;;1.40;;
17052;SDS011;8643;48.824;11.422;2022-09-02T06:21:17;2.17;;;1.42;;
17052;SDS011;8643;48.824;11.422;2022-09-02T06:23:50;4.43;;;1.40;;
17052;SDS011;8643;48.824;11.422;2022-09-02T06:26:19;2.35;;;1.40;;
17052;SDS011;8643;48.824;11.422;2022-09-02T06:28:48;2.78;;;1.23;;
17052;SDS011;8643;48.824;11.422;2022-09-02T06:31:17;2.97;;;1.50;;
17052;SDS011;8643;48.824;11.422;2022-09-02T06:33:50;2.22;;;1.55;;
17052;SDS011;8643;48.824;11.422;2022-09-02T06:36:23;2.08;;;1.38;;
17052;SDS011;8643;48.824;11.422;2022-09-02T06:38:58;1.33;;;1.20;;
17052;SDS011;8643;48.824;11.422;2022-09-02T06:41:31;1.65;;;1.35;;
17052;SDS011;8643;48.824;11.422;2022-09-02T06:44:05;3.35;;;1.40;;
17052;SDS011;8643;48.824;11.422;2022-09-02T06:46:37;1.63;;;1.20;;
17052;SDS011;8643;48.824;11.422;2022-09-02T06:49:11;2.65;;;1.42;;
17052;SDS011;8643;48.824;11.422;2022-09-02T06:51:46;2.45;;;1.30;;
17052;SDS011;8643;48.824;11.422;2022-09-02T06:54:18;2.40;;;1.30;;
17052;SDS011;8643;48.824;11.422;2022-09-02T06:56:52;1.88;;;1.13;;
17052;SDS011;8643;48.824;11.422;2022-09-02T06:59:23;2.03;;;1.40;;
17052;SDS011;8643;48.824;11.422;2022-09-02T07:01:55;2.92;;;1.30;;
17052;SDS011;8643;48.824;11.422;2022-09-02T07:04:25;4.75;;;1.25;;
17052;SDS011;8643;48.824;11.422;2022-09-02T07:07:17;3.47;;;1.33;;
17052;SDS011;8643;48.824;11.422;2022-09-02T07:09:51;2.75;;;1.40;;
17052;SDS011;8643;48.824;11.422;2022-09-02T07:12:21;2.92;;;1.20;;
17052;SDS011;8643;48.824;11.422;2022-09-02T07:15:00;2.58;;;1.60;;
17052;SDS011;8643;48.824;11.422;2022-09-02T07:17:33;3.15;;;1.30;;
17052;SDS011;8643;48.824;11.422;2022-09-02T07:20:05;2.47;;;1.17;;
17052;SDS011;8643;48.824;11.422;2022-09-02T07:22:42;2.35;;;1.08;;
17052;SDS011;8643;48.824;11.422;2022-09-02T07:25:14;2.67;;;1.20;;
17052;SDS011;8643;48.824;11.422;2022-09-02T07:27:44;2.90;;;1.30;;
17052;SDS011;8643;48.824;11.422;2022-09-02T07:30:13;3.30;;;1.20;;
17052;SDS011;8643;48.824;11.422;2022-09-02T07:32:43;3.10;;;1.30;;
17052;SDS011;8643;48.824;11.422;2022-09-02T07:35:13;4.40;;;1.40;;
17052;SDS011;8643;48.824;11.422;2022-09-02T07:37:44;2.78;;;1.10;;
17052;SDS011;8643;48.824;11.422;2022-09-02T07:40:14;1.70;;;1.02;;
17052;SDS011;8643;48.824;11.422;2022-09-02T07:42:45;1.80;;;1.30;;
17052;SDS011;8643;48.824;11.422;2022-09-02T07:45:16;1.75;;;1.05;;
17052;SDS011;8643;48.824;11.422;2022-09-02T07:47:45;2.45;;;1.30;;
17052;SDS011;8643;48.824;11.422;2022-09-02T07:50:14;1.83;;;1.20;;
17052;SDS011;8643;48.824;11.422;2022-09-02T07:52:52;2.70;;;1.15;;
17052;SDS011;8643;48.824;11.422;2022-09-02T07:55:22;4.07;;;1.40;;
17052;SDS011;8643;48.824;11.422;2022-09-02T07:57:52;4.80;;;1.20;;
17052;SDS011;8643;48.824;11.422;2022-09-02T08:00:22;3.83;;;1.25;;
17052;SDS011;8643;48.824;11.422;2022-09-02T08:02:55;1.73;;;1.10;;
17052;SDS011;8643;48.824;11.422;2022-09-02T08:05:29;4.18;;;1.25;;
17052;SDS011;8643;48.824;11.422;2022-09-02T08:08:02;4.13;;;1.27;;
17052;SDS011;8643;48.824;11.422;2022-09-02T08:10:31;1.42;;;1.17;;
17052;SDS011;8643;48.824;11.422;2022-09-02T08:13:01;3.30;;;1.20;;
17052;SDS011;8643;48.824;11.422;2022-09-02T08:15:31;4.25;;;1.10;;
17052;SDS011;8643;48.824;11.422;2022-09-02T08:18:02;2.42;;;1.10;;
17052;SDS011;8643;48.824;11.422;2022-09-02T08:20:31;2.72;;;1.23;;
17052;SDS011;8643;48.824;11.422;2022-09-02T08:23:03;4.90;;;1.17;;
17052;SDS011;8643;48.824;11.422;2022-09-02T08:25:43;4.43;;;1.20;;
17052;SDS011;8643;48.824;11.422;2022-09-02T08:28:12;1.73;;;1.15;;
17052;SDS011;8643;48.824;11.422;2022-09-02T08:30:40;2.53;;;1.25;;
17052;SDS011;8643;48.824;11.422;2022-09-02T08:33:09;3.28;;;1.30;;
17052;SDS011;8643;48.824;11.422;2022-09-02T08:35:37;2.67;;;1.20;;
17052;SDS011;8643;48.824;11.422;2022-09-02T08:38:07;1.73;;;1.10;;
17052;SDS011;8643;48.824;11.422;2022-09-02T08:40:36;3.30;;;1.20;;
17052;SDS011;8643;48.824;11.422;2022-09-02T08:43:12;1.77;;;1.05;;
17052;SDS011;8643;48.824;11.422;2022-09-02T08:45:57;4.78;;;1.23;;
17052;SDS011;8643;48.824;11.422;2022-09-02T08:48:32;1.25;;;1.00;;
17052;SDS011;8643;48.824;11.422;2022-09-02T08:51:06;1.63;;;1.08;;
17052;SDS011;8643;48.824;11.422;2022-09-02T08:53:43;3.17;;;1.30;;
17052;SDS011;8643;48.824;11.422;2022-09-02T08:56:18;2.20;;;1.30;;
17052;SDS011;8643;48.824;11.422;2022-09-02T08:58:48;2.00;;;1.35;;
17052;SDS011;8643;48.824;11.422;2022-09-02T09:01:27;2.40;;;1.20;;
17052;SDS011;8643;48.824;11.422;2022-09-02T09:04:23;2.10;;;1.38;;
17052;SDS011;8643;48.824;11.422;2022-09-02T09:07:17;2.92;;;1.30;;
17052;SDS011;8643;48.824;11.422;2022-09-02T09:10:02;2.33;;;1.17;;
17052;SDS011;8643;48.824;11.422;2022-09-02T09:12:53;6.47;;;1.27;;
17052;SDS011;8643;48.824;11.422;2022-09-02T09:15:40;5.47;;;1.42;;
17052;SDS011;8643;48.824;11.422;2022-09-02T09:18:20;1.88;;;1.25;;
17052;SDS011;8643;48.824;11.422;2022-09-02T09:21:01;2.47;;;1.15;;
17052;SDS011;8643;48.824;11.422;2022-09-02T09:23:31;1.65;;;0.98;;
17052;SDS011;8643;48.824;11.422;2022-09-02T09:26:06;2.45;;;1.00;;
17052;SDS011;8643;48.824;11.422;2022-09-02T09:28:37;3.85;;;1.27;;
17052;SDS011;8643;48.824;11.422;2022-09-02T09:31:08;2.50;;;1.10;;
17052;SDS011;8643;48.824;11.422;2022-09-02T09:33:53;1.58;;;1.00;;
17052;SDS011;8643;48.824;11.422;2022-09-02T09:39:22;2.25;;;1.10;;
17052;SDS011;8643;48.824;11.422;2022-09-02T09:41:56;1.40;;;1.10;;
17052;SDS011;8643;48.824;11.422;2022-09-02T09:44:38;3.67;;;1.30;;
17052;SDS011;8643;48.824;11.422;2022-09-02T09:47:14;1.30;;;0.90;;
17052;SDS011;8643;48.824;11.422;2022-09-02T09:49:46;1.75;;;1.20;;
17052;SDS011;8643;48.824;11.422;2022-09-02T09:52:23;3.13;;;1.10;;
17052;SDS011;8643;48.824;11.422;2022-09-02T09:55:05;1.40;;;0.90;;
17052;SDS011;8643;48.824;11.422;2022-09-02T09:57:52;3.92;;;1.15;;
17052;SDS011;8643;48.824;11.422;2022-09-02T10:00:35;1.55;;;0.93;;
17052;SDS011;8643;48.824;11.422;2022-09-02T10:03:05;3.20;;;1.08;;
17052;SDS011;8643;48.824;11.422;2022-09-02T10:05:35;3.40;;;0.95;;
17052;SDS011;8643;48.824;11.422;2022-09-02T10:08:18;1.23;;;0.75;;
17052;SDS011;8643;48.824;11.422;2022-09-02T10:10:56;2.40;;;0.80;;
17052;SDS011;8643;48.824;11.422;2022-09-02T10:13:29;3.15;;;1.20;;
17052;SDS011;8643;48.824;11.422;2022-09-02T10:16:06;2.10;;;0.85;;
17052;SDS011;8643;48.824;11.422;2022-09-02T10:19:10;3.38;;;1.15;;
17052;SDS011;8643;48.824;11.422;2022-09-02T10:21:54;2.70;;;1.10;;
17052;SDS011;8643;48.824;11.422;2022-09-02T10:25:21;2.10;;;0.93;;
17052;SDS011;8643;48.824;11.422;2022-09-02T10:28:01;1.73;;;0.82;;
17052;SDS011;8643;48.824;11.422;2022-09-02T10:30:48;2.10;;;1.10;;
17052;SDS011;8643;48.824;11.422;2022-09-02T10:33:33;2.13;;;0.90;;
17052;SDS011;8643;48.824;11.422;2022-09-02T10:36:13;1.48;;;1.10;;
17052;SDS011;8643;48.824;11.422;2022-09-02T10:38:54;1.10;;;1.00;;
17052;SDS011;8643;48.824;11.422;2022-09-02T10:41:39;3.08;;;1.13;;
17052;SDS011;8643;48.824;11.422;2022-09-02T10:47:16;2.63;;;1.00;;
17052;SDS011;8643;48.824;11.422;2022-09-02T10:50:00;1.77;;;1.00;;
17052;SDS011;8643;48.824;11.422;2022-09-02T10:52:50;2.08;;;0.90;;
17052;SDS011;8643;48.824;11.422;2022-09-02T10:55:35;1.30;;;0.90;;
17052;SDS011;8643;48.824;11.422;2022-09-02T10:58:17;3.25;;;1.05;;
17052;SDS011;8643;48.824;11.422;2022-09-02T11:00:52;1.90;;;0.77;;
17052;SDS011;8643;48.824;11.422;2022-09-02T11:03:26;1.48;;;0.77;;
17052;SDS011;8643;48.824;11.422;2022-09-02T11:06:02;1.63;;;0.95;;
17052;SDS011;8643;48.824;11.422;2022-09-02T11:08:40;1.67;;;1.00;;
17052;SDS011;8643;48.824;11.422;2022-09-02T11:11:15;1.10;;;0.82;;
17052;SDS011;8643;48.824;11.422;2022-09-02T11:13:52;1.20;;;0.77;;
17052;SDS011;8643;48.824;11.422;2022-09-02T11:16:29;1.85;;;1.05;;
17052;SDS011;8643;48.824;11.422;2022-09-02T11:19:09;1.42;;;1.00;;
17052;SDS011;8643;48.824;11.422;2022-09-02T11:21:50;1.63;;;0.90;;
17052;SDS011;8643;48.824;11.422;2022-09-02T11:24:30;2.55;;;1.00;;
17052;SDS011;8643;48.824;11.422;2022-09-02T11:27:13;1.83;;;0.95;;
17052;SDS011;8643;48.824;11.422;2022-09-02T11:30:10;1.70;;;1.00;;
17052;SDS011;8643;48.824;11.422;2022-09-02T11:32:43;3.10;;;1.10;;
17052;SDS011;8643;48.824;11.422;2022-09-02T11:35:22;1.65;;;1.00;;
17052;SDS011;8643;48.824;11.422;2022-09-02T11:37:54;1.30;;;0.88;;
17052;SDS011;8643;48.824;11.422;2022-09-02T11:40:29;0.88;;;0.80;;
17052;SDS011;8643;48.824;11.422;2022-09-02T11:43:09;2.15;;;0.80;;
17052;SDS011;8643;48.824;11.422;2022-09-02T11:46:02;1.27;;;0.90;;
17052;SDS011;8643;48.824;11.422;2022-09-02T11:52:22;2.97;;;0.80;;
17052;SDS011;8643;48.824;11.422;2022-09-02T11:55:06;2.13;;;0.77;;
17052;SDS011;8643;48.824;11.422;2022-09-02T11:57:42;3.03;;;1.08;;
17052;SDS011;8643;48.824;11.422;2022-09-02T12:00:26;2.33;;;1.00;;
17052;SDS011;8643;48.824;11.422;2022-09-02T12:06:09;0.80;;;0.70;;
17052;SDS011;8643;48.824;11.422;2022-09-02T12:15:35;1.90;;;1.00;;
17052;SDS011;8643;48.824;11.422;2022-09-02T12:18:09;1.10;;;0.80;;
17052;SDS011;8643;48.824;11.422;2022-09-02T12:21:07;3.63;;;1.02;;
17052;SDS011;8643;48.824;11.422;2022-09-02T12:27:03;3.88;;;1.13;;
17052;SDS011;8643;48.824;11.422;2022-09-02T12:29:57;4.28;;;1.00;;
17052;SDS011;8643;48.824;11.422;2022-09-02T12:35:48;1.35;;;0.90;;
17052;SDS011;8643;48.824;11.422;2022-09-02T12:38:32;2.45;;;1.00;;
17052;SDS011;8643;48.824;11.422;2022-09-02T12:41:10;1.13;;;0.82;;
17052;SDS011;8643;48.824;11.422;2022-09-02T12:44:02;2.10;;;1.00;;
17052;SDS011;8643;48.824;11.422;2022-09-02T12:46:58;2.13;;;0.80;;
17052;SDS011;8643;48.824;11.422;2022-09-02T12:49:36;2.50;;;0.90;;
17052;SDS011;8643;48.824;11.422;2022-09-02T12:55:13;1.52;;;0.70;;
17052;SDS011;8643;48.824;11.422;2022-09-02T12:57:47;0.75;;;0.73;;
17052;SDS011;8643;48.824;11.422;2022-09-02T13:00:25;3.65;;;0.90;;
17052;SDS011;8643;48.824;11.422;2022-09-02T13:03:09;1.98;;;1.13;;
17052;SDS011;8643;48.824;11.422;2022-09-02T13:05:58;1.35;;;0.90;;
17052;SDS011;8643;48.824;11.422;2022-09-02T13:12:30;1.70;;;0.70;;
17052;SDS011;8643;48.824;11.422;2022-09-02T13:15:36;0.90;;;0.70;;
17052;SDS011;8643;48.824;11.422;2022-09-02T13:18:32;1.10;;;0.85;;
17052;SDS011;8643;48.824;11.422;2022-09-02T13:21:48;1.10;;;0.90;;
17052;SDS011;8643;48.824;11.422;2022-09-02T13:28:20;2.33;;;1.00;;
17052;SDS011;8643;48.824;11.422;2022-09-02T13:31:27;1.95;;;0.85;;
17052;SDS011;8643;48.824;11.422;2022-09-02T13:33:57;1.02;;;0.80;;
17052;SDS011;8643;48.824;11.422;2022-09-02T13:36:31;1.75;;;0.90;;
17052;SDS011;8643;48.824;11.422;2022-09-02T13:39:14;2.30;;;0.80;;
17052;SDS011;8643;48.824;11.422;2022-09-02T13:41:44;2.05;;;0.90;;
17052;SDS011;8643;48.824;11.422;2022-09-02T13:44:19;2.30;;;1.00;;
17052;SDS011;8643;48.824;11.422;2022-09-02T13:46:52;1.17;;;1.00;;
17052;SDS011;8643;48.824;11.422;2022-09-02T13:49:30;1.63;;;0.80;;
17052;SDS011;8643;48.824;11.422;2022-09-02T13:52:04;1.20;;;0.80;;
17052;SDS011;8643;48.824;11.422;2022-09-02T13:54:42;2.20;;;0.93;;
17052;SDS011;8643;48.824;11.422;2022-09-02T13:57:16;2.55;;;0.98;;
17052;SDS011;8643;48.824;11.422;2022-09-02T13:59:53;1.42;;;0.73;;
17052;SDS011;8643;48.824;11.422;2022-09-02T14:02:26;5.78;;;1.02;;
17052;SDS011;8643;48.824;11.422;2022-09-02T14:04:57;3.03;;;0.90;;
17052;SDS011;8643;48.824;11.422;2022-09-02T14:07:31;1.80;;;0.80;;
17052;SDS011;8643;48.824;11.422;2022-09-02T14:10:07;2.17;;;0.90;;
17052;SDS011;8643;48.824;11.422;2022-09-02T14:12:39;2.00;;;1.05;;
17052;SDS011;8643;48.824;11.422;2022-09-02T14:15:10;1.92;;;1.02;;
17052;SDS011;8643;48.824;11.422;2022-09-02T14:17:43;1.10;;;0.90;;
17052;SDS011;8643;48.824;11.422;2022-09-02T14:20:16;1.30;;;0.80;;
17052;SDS011;8643;48.824;11.422;2022-09-02T14:22:52;5.30;;;0.90;;
17052;SDS011;8643;48.824;11.422;2022-09-02T14:25:23;1.48;;;1.00;;
17052;SDS011;8643;48.824;11.422;2022-09-02T14:27:54;0.80;;;0.73;;
17052;SDS011;8643;48.824;11.422;2022-09-02T14:30:27;1.50;;;0.80;;
17052;SDS011;8643;48.824;11.422;2022-09-02T14:33:17;3.20;;;1.05;;
17052;SDS011;8643;48.824;11.422;2022-09-02T14:35:57;2.28;;;0.95;;
17052;SDS011;8643;48.824;11.422;2022-09-02T14:38:28;2.13;;;0.90;;
17052;SDS011;8643;48.824;11.422;2022-09-02T14:41:02;2.28;;;0.85;;
17052;SDS011;8643;48.824;11.422;2022-09-02T14:43:42;5.60;;;1.13;;
17052;SDS011;8643;48.824;11.422;2022-09-02T14:46:21;1.10;;;0.85;;
17052;SDS011;8643;48.824;11.422;2022-09-02T14:48:56;3.97;;;1.00;;
17052;SDS011;8643;48.824;11.422;2022-09-02T14:51:31;3.40;;;0.90;;
17052;SDS011;8643;48.824;11.422;2022-09-02T14:54:05;1.20;;;0.77;;
17052;SDS011;8643;48.824;11.422;2022-09-02T14:56:41;1.55;;;0.90;;
17052;SDS011;8643;48.824;11.422;2022-09-02T14:59:17;3.00;;;0.80;;
17052;SDS011;8643;48.824;11.422;2022-09-02T15:01:47;1.73;;;0.80;;
17052;SDS011;8643;48.824;11.422;2022-09-02T15:04:21;2.00;;;1.00;;
17052;SDS011;8643;48.824;11.422;2022-09-02T15:06:49;2.38;;;0.90;;
17052;SDS011;8643;48.824;11.422;2022-09-02T15:09:18;2.08;;;0.93;;
17052;SDS011;8643;48.824;11.422;2022-09-02T15:11:47;4.72;;;1.00;;
17052;SDS011;8643;48.824;11.422;2022-09-02T15:14:22;3.45;;;0.90;;
17052;SDS011;8643;48.824;11.422;2022-09-02T15:16:51;2.25;;;1.00;;
17052;SDS011;8643;48.824;11.422;2022-09-02T15:19:21;3.75;;;0.70;;
17052;SDS011;8643;48.824;11.422;2022-09-02T15:21:50;2.40;;;1.00;;
17052;SDS011;8643;48.824;11.422;2022-09-02T15:24:18;1.55;;;1.00;;
17052;SDS011;8643;48.824;11.422;2022-09-02T15:26:47;3.20;;;0.90;;
17052;SDS011;8643;48.824;11.422;2022-09-02T15:29:15;23.45;;;5.45;;
17052;SDS011;8643;48.824;11.422;2022-09-02T15:31:44;9.38;;;1.95;;
17052;SDS011;8643;48.824;11.422;2022-09-02T15:34:12;18.83;;;4.50;;
17052;SDS011;8643;48.824;11.422;2022-09-02T15:36:42;56.30;;;13.65;;
17052;SDS011;8643;48.824;11.422;2022-09-02T15:39:10;79.32;;;16.17;;
17052;SDS011;8643;48.824;11.422;2022-09-02T15:41:39;18.88;;;4.68;;
17052;SDS011;8643;48.824;11.422;2022-09-02T15:44:10;3.00;;;1.10;;
17052;SDS011;8643;48.824;11.422;2022-09-02T15:46:38;1.70;;;0.90;;
17052;SDS011;8643;48.824;11.422;2022-09-02T15:49:09;1.25;;;0.95;;
17052;SDS011;8643;48.824;11.422;2022-09-02T15:51:42;3.45;;;0.90;;
17052;SDS011;8643;48.824;11.422;2022-09-02T15:54:12;1.17;;;0.90;;
17052;SDS011;8643;48.824;11.422;2022-09-02T15:56:44;1.00;;;0.90;;
17052;SDS011;8643;48.824;11.422;2022-09-02T15:59:14;1.20;;;1.00;;
17052;SDS011;8643;48.824;11.422;2022-09-02T16:01:47;3.35;;;1.00;;
17052;SDS011;8643;48.824;11.422;2022-09-02T16:04:17;4.72;;;1.05;;